Terminal Aerodrome Forecast
Issued by NWS Cleveland, OH

Home | Current Version | Previous Version | Graphics & Text | Print | Product List | Glossary On
Versions: 1 2 3 4 5 6 7 8 9 10 11 12 13 14 15 16 17 18
000
FTUS41 KCLE 270536
TAFCLE
TAF
KCLE 270536Z 2706/2812 20010KT P6SM BKN080
     FM271400 22012G22KT P6SM SCT015
     FM271600 22015G25KT P6SM BKN040
     FM271800 24015G25KT P6SM BKN050
      TEMPO 2722/2801 3SM -TSRA OVC035CB
     FM280200 26012KT P6SM VCSH BKN035 BKN080
     FM280600 29005KT 6SM BR SCT120=

USA.gov is the U.S. government's official web portal to all federal, state and local government web resources and services.